Time;durP1;ratioP1;P1;durP2;ratioP2;P2;SDS_P1;SDS_P2;PMS_P1;PMS_P2;Temp;Humidity;BMP_temperature;BMP_pressure;BME280_temperature;BME280_humidity;BME280_pressure;Samples;Min_cycle;Max_cycle;Signal;HPM_P1;HPM_P2
2024/01/23 00:01:04;;;;;;;0.60;0.60;;;4.10;99.90;;;;;;5031983;28;20201;-68
2024/01/23 00:03:31;;;;;;;0.50;0.50;;;4.20;99.90;;;;;;5031978;28;20624;-68
2024/01/23 00:05:56;;;;;;;0.65;0.65;;;4.30;99.90;;;;;;5032005;28;20624;-68
2024/01/23 00:08:22;;;;;;;0.60;0.60;;;4.20;99.90;;;;;;5031702;28;20202;-69
2024/01/23 00:10:50;;;;;;;0.75;0.75;;;4.30;99.90;;;;;;5032109;28;20222;-69
2024/01/23 00:13:19;;;;;;;0.98;0.98;;;4.30;99.90;;;;;;5031791;28;20569;-69
2024/01/23 00:15:45;;;;;;;0.60;0.60;;;4.30;99.90;;;;;;5032108;28;20269;-68
2024/01/23 00:18:13;;;;;;;0.60;0.60;;;4.20;99.90;;;;;;5014320;28;20277;-69
2024/01/23 00:20:39;;;;;;;0.50;0.50;;;4.10;99.90;;;;;;5031823;28;20281;-68
2024/01/23 00:23:14;;;;;;;0.65;0.65;;;4.10;99.90;;;;;;5032078;28;20627;-69
2024/01/23 00:25:40;;;;;;;0.55;0.55;;;4.10;99.90;;;;;;5032078;28;20210;-68
2024/01/23 00:28:13;;;;;;;0.70;0.70;;;4.10;99.90;;;;;;5031880;28;20195;-68
2024/01/23 00:30:57;;;;;;;0.60;0.60;;;4.10;99.90;;;;;;5031936;28;20277;-68
2024/01/23 00:33:23;;;;;;;0.80;0.80;;;4.10;99.90;;;;;;5032652;28;20595;-69
2024/01/23 00:35:48;;;;;;;0.80;0.80;;;4.10;99.90;;;;;;5035651;28;20202;-69
2024/01/23 00:38:14;;;;;;;1.33;1.25;;;4.20;99.90;;;;;;5035449;28;20209;-69
2024/01/23 00:40:39;;;;;;;0.70;0.70;;;4.20;99.90;;;;;;5035357;28;20202;-69
2024/01/23 00:43:05;;;;;;;0.60;0.60;;;4.20;99.90;;;;;;5035488;28;20220;-68
2024/01/23 00:45:33;;;;;;;0.70;0.70;;;4.10;99.90;;;;;;5035280;28;20248;-69
2024/01/23 00:48:00;;;;;;;0.80;0.80;;;4.20;99.90;;;;;;5035607;28;20206;-68
2024/01/23 00:50:25;;;;;;;0.60;0.60;;;4.20;99.90;;;;;;5035130;28;20559;-68
2024/01/23 00:52:51;;;;;;;0.60;0.60;;;4.20;99.90;;;;;;5035244;28;20198;-68
2024/01/23 00:55:17;;;;;;;0.60;0.60;;;4.10;99.90;;;;;;5035121;28;20193;-69
2024/01/23 00:57:43;;;;;;;0.70;0.70;;;4.10;99.90;;;;;;5035078;28;20716;-68
2024/01/23 01:00:09;;;;;;;0.95;0.95;;;4.10;99.90;;;;;;5034855;28;20267;-69
2024/01/23 01:02:35;;;;;;;0.70;0.70;;;4.10;99.90;;;;;;5034883;28;20614;-68
2024/01/23 01:05:01;;;;;;;1.38;1.27;;;4.20;99.90;;;;;;5017046;28;20202;-69
2024/01/23 01:07:26;;;;;;;3.22;1.88;;;4.10;99.90;;;;;;5034534;28;20229;-68
2024/01/23 01:09:52;;;;;;;0.70;0.70;;;4.10;99.90;;;;;;5035038;28;20237;-68
2024/01/23 01:12:18;;;;;;;0.60;0.60;;;4.10;99.90;;;;;;5034658;28;20194;-69
2024/01/23 01:14:43;;;;;;;0.68;0.68;;;4.20;99.90;;;;;;5034999;28;20248;-69
2024/01/23 01:17:09;;;;;;;0.70;0.70;;;4.20;99.90;;;;;;5034760;28;20256;-69
2024/01/23 01:19:35;;;;;;;0.70;0.70;;;4.20;99.90;;;;;;5034517;28;20607;-68
2024/01/23 01:22:01;;;;;;;0.70;0.70;;;4.20;99.90;;;;;;5034753;28;20201;-69
2024/01/23 01:24:27;;;;;;;0.70;0.70;;;4.20;99.90;;;;;;5034565;28;20194;-69
2024/01/23 01:26:52;;;;;;;0.60;0.60;;;4.20;99.90;;;;;;5034590;28;20190;-68
2024/01/23 01:29:18;;;;;;;0.80;0.80;;;4.20;99.90;;;;;;5034403;28;20225;-68
2024/01/23 01:31:44;;;;;;;0.90;0.90;;;4.20;99.90;;;;;;5034446;28;20329;-68
2024/01/23 01:34:09;;;;;;;0.63;0.63;;;4.20;99.90;;;;;;5034466;28;20229;-68
2024/01/23 01:36:35;;;;;;;0.60;0.60;;;4.20;99.90;;;;;;5034281;28;20195;-68
2024/01/23 01:39:02;;;;;;;0.70;0.70;;;4.20;99.90;;;;;;5034411;28;20198;-69
2024/01/23 01:41:27;;;;;;;0.70;0.70;;;4.30;99.90;;;;;;5034175;28;20232;-68
2024/01/23 01:43:53;;;;;;;0.70;0.70;;;4.40;99.90;;;;;;5034229;28;20234;-69
2024/01/23 01:46:21;;;;;;;0.70;0.70;;;4.30;99.90;;;;;;5033041;28;20560;-68
2024/01/23 01:48:47;;;;;;;0.70;0.70;;;4.40;99.90;;;;;;5034289;28;20186;-69
2024/01/23 01:51:14;;;;;;;0.60;0.60;;;4.30;99.90;;;;;;5034185;28;20217;-68
2024/01/23 01:53:40;;;;;;;0.60;0.60;;;4.30;99.90;;;;;;5033953;28;20674;-68
2024/01/23 01:56:07;;;;;;;0.60;0.60;;;4.30;99.90;;;;;;5034205;28;20186;-68
2024/01/23 01:58:34;;;;;;;0.70;0.70;;;4.30;99.90;;;;;;5033855;28;20275;-68
2024/01/23 02:01:00;;;;;;;0.55;0.55;;;4.20;99.90;;;;;;5033624;28;20325;-69
2024/01/23 02:03:29;;;;;;;1.08;1.08;;;4.20;99.90;;;;;;5033755;28;20264;-69
2024/01/23 02:05:58;;;;;;;0.60;0.60;;;4.20;99.90;;;;;;5033715;28;20226;-68
2024/01/23 02:08:24;;;;;;;0.80;0.80;;;4.30;99.90;;;;;;5033635;28;20569;-68
2024/01/23 02:10:50;;;;;;;0.68;0.68;;;4.40;99.90;;;;;;5033619;28;20194;-68
2024/01/23 02:13:15;;;;;;;2.15;1.00;;;4.30;99.90;;;;;;5032783;28;20217;-69
2024/01/23 02:15:41;;;;;;;0.70;0.70;;;4.30;99.90;;;;;;5033279;28;20580;-68
2024/01/23 02:18:06;;;;;;;0.60;0.60;;;4.30;99.90;;;;;;5033733;28;20194;-74
2024/01/23 02:20:32;;;;;;;0.95;0.93;;;4.20;99.90;;;;;;5033139;28;20672;-74
2024/01/23 02:22:58;;;;;;;0.70;0.70;;;4.20;99.90;;;;;;5033552;28;20309;-74
2024/01/23 02:25:24;;;;;;;0.68;0.68;;;4.20;99.90;;;;;;5033594;28;20268;-74
2024/01/23 02:27:49;;;;;;;0.70;0.70;;;4.20;99.90;;;;;;5033428;28;20206;-75
2024/01/23 02:30:15;;;;;;;0.80;0.80;;;4.30;99.90;;;;;;5033146;28;20198;-73
2024/01/23 02:32:44;;;;;;;0.70;0.70;;;4.30;99.90;;;;;;5033042;28;20198;-76
2024/01/23 02:35:10;;;;;;;0.73;0.73;;;4.40;99.90;;;;;;5033410;28;20193;-76
2024/01/23 02:37:36;;;;;;;0.75;0.75;;;4.20;99.90;;;;;;5033136;28;20194;-75
2024/01/23 02:40:03;;;;;;;0.70;0.70;;;4.20;99.90;;;;;;5033151;28;20201;-75
2024/01/23 02:42:28;;;;;;;0.60;0.60;;;4.20;99.90;;;;;;5032992;28;20247;-75
2024/01/23 02:44:54;;;;;;;0.60;0.60;;;4.10;99.90;;;;;;5033173;28;20289;-76
2024/01/23 02:47:20;;;;;;;0.80;0.80;;;4.10;99.90;;;;;;5015150;28;20248;-76
2024/01/23 02:49:46;;;;;;;0.90;0.90;;;4.10;99.90;;;;;;5033042;28;20283;-76
2024/01/23 02:52:12;;;;;;;0.63;0.63;;;4.10;99.90;;;;;;5033043;28;20238;-76
2024/01/23 02:54:37;;;;;;;0.60;0.60;;;4.10;99.90;;;;;;5032704;28;20304;-76
2024/01/23 02:57:03;;;;;;;0.73;0.73;;;4.10;99.90;;;;;;5014836;28;20194;-75
2024/01/23 02:59:29;;;;;;;0.90;0.85;;;4.10;99.90;;;;;;5032479;28;20675;-75
2024/01/23 03:01:55;;;;;;;0.60;0.60;;;4.20;99.90;;;;;;5032464;28;20300;-75
2024/01/23 03:04:20;;;;;;;5.40;2.97;;;4.10;99.90;;;;;;5032593;28;20285;-75
2024/01/23 03:06:46;;;;;;;0.60;0.60;;;4.10;99.90;;;;;;5032602;28;20604;-76
2024/01/23 03:09:13;;;;;;;0.65;0.65;;;4.00;99.90;;;;;;5014965;28;20741;-74
2024/01/23 03:11:42;;;;;;;0.70;0.70;;;4.10;99.90;;;;;;5032382;28;20198;-76
2024/01/23 03:14:07;;;;;;;0.60;0.60;;;4.10;99.90;;;;;;5032555;28;20205;-76
2024/01/23 03:16:33;;;;;;;0.80;0.80;;;4.00;99.90;;;;;;5032397;28;20278;-76
2024/01/23 03:18:59;;;;;;;0.73;0.73;;;4.00;99.90;;;;;;5032607;28;20186;-76
2024/01/23 03:21:24;;;;;;;0.70;0.70;;;4.10;99.90;;;;;;5032298;28;20650;-76
2024/01/23 03:23:51;;;;;;;0.70;0.70;;;4.10;99.90;;;;;;5032500;28;20194;-77
2024/01/23 03:26:17;;;;;;;0.77;0.77;;;4.10;99.90;;;;;;5032346;28;20610;-74
2024/01/23 03:28:43;;;;;;;0.70;0.70;;;4.10;99.90;;;;;;5032519;28;20202;-68
2024/01/23 03:31:09;;;;;;;1.30;1.20;;;4.00;99.90;;;;;;5032366;28;20194;-69
2024/01/23 03:33:34;;;;;;;0.70;0.70;;;4.20;99.90;;;;;;5032171;28;20206;-69
2024/01/23 03:36:00;;;;;;;0.70;0.70;;;4.20;99.90;;;;;;5032552;28;20189;-68
2024/01/23 03:38:26;;;;;;;0.70;0.70;;;4.20;99.90;;;;;;5032167;28;20186;-68
2024/01/23 03:40:52;;;;;;;0.70;0.70;;;4.20;99.90;;;;;;5032294;28;20199;-68
2024/01/23 03:43:17;;;;;;;0.60;0.60;;;4.10;99.90;;;;;;5032244;28;20264;-69
2024/01/23 03:45:43;;;;;;;0.70;0.70;;;4.10;99.90;;;;;;5032282;28;20202;-68
2024/01/23 03:48:10;;;;;;;0.70;0.70;;;4.10;99.90;;;;;;5032294;28;20244;-69
2024/01/23 03:50:35;;;;;;;0.80;0.80;;;4.10;99.90;;;;;;5032078;28;20705;-69
2024/01/23 03:53:01;;;;;;;0.70;0.70;;;4.20;99.90;;;;;;5032192;28;20244;-69
2024/01/23 03:55:27;;;;;;;0.57;0.57;;;4.20;99.90;;;;;;5013853;28;20194;-69
2024/01/23 03:57:53;;;;;;;1.50;1.40;;;4.20;99.90;;;;;;5032092;28;20213;-69
2024/01/23 04:00:19;;;;;;;0.70;0.70;;;4.10;99.90;;;;;;5029561;28;20186;-70
2024/01/23 04:02:45;;;;;;;0.65;0.65;;;4.10;99.90;;;;;;5025232;28;20657;-68
2024/01/23 04:05:10;;;;;;;0.60;0.60;;;4.10;99.90;;;;;;5032076;28;20186;-69
2024/01/23 04:07:36;;;;;;;0.60;0.60;;;4.10;99.90;;;;;;5031901;28;20226;-68
2024/01/23 04:10:04;;;;;;;0.68;0.68;;;4.10;99.90;;;;;;5035999;28;20198;-68
2024/01/23 04:12:29;;;;;;;0.75;0.75;;;4.10;99.90;;;;;;5035882;28;20228;-68
2024/01/23 04:14:55;;;;;;;0.60;0.60;;;4.10;99.90;;;;;;5035951;28;20720;-69
2024/01/23 04:17:21;;;;;;;0.60;0.60;;;4.00;99.90;;;;;;5035754;28;20197;-69
2024/01/23 04:19:46;;;;;;;0.80;0.80;;;4.10;99.90;;;;;;5035833;28;20182;-68
2024/01/23 04:22:12;;;;;;;0.60;0.60;;;4.10;99.90;;;;;;5035865;28;20634;-68
2024/01/23 04:24:38;;;;;;;0.50;0.50;;;4.10;99.90;;;;;;5035795;28;20701;-69
2024/01/23 04:27:04;;;;;;;0.50;0.50;;;4.20;99.90;;;;;;5035840;28;20205;-68
2024/01/23 04:29:30;;;;;;;0.60;0.60;;;4.20;99.90;;;;;;5035631;28;20234;-68
2024/01/23 04:31:56;;;;;;;0.60;0.60;;;4.20;99.90;;;;;;5035703;28;20201;-68
2024/01/23 04:34:21;;;;;;;0.60;0.60;;;4.20;99.90;;;;;;5035451;28;20221;-68
2024/01/23 04:36:48;;;;;;;0.60;0.60;;;4.20;99.90;;;;;;5035672;28;20191;-68
2024/01/23 04:39:14;;;;;;;0.60;0.60;;;4.30;99.90;;;;;;5035664;28;20190;-72
2024/01/23 04:41:40;;;;;;;0.57;0.57;;;4.30;99.90;;;;;;5035268;28;20198;-72
2024/01/23 04:44:06;;;;;;;0.63;0.63;;;4.20;99.90;;;;;;5035454;28;20200;-72
2024/01/23 04:46:31;;;;;;;0.60;0.60;;;4.10;99.90;;;;;;5035280;28;20202;-72
2024/01/23 04:48:57;;;;;;;0.65;0.65;;;4.00;99.90;;;;;;5035468;28;20217;-72
2024/01/23 04:51:22;;;;;;;0.77;0.77;;;3.90;99.90;;;;;;5034874;28;20670;-72
2024/01/23 04:53:52;;;;;;;0.70;0.70;;;3.90;99.90;;;;;;5035222;28;20214;-72
2024/01/23 04:56:20;;;;;;;0.80;0.80;;;3.90;99.90;;;;;;5017379;28;20744;-72
2024/01/23 04:58:46;;;;;;;0.70;0.70;;;4.00;99.90;;;;;;5035184;28;20198;-72
2024/01/23 05:01:12;;;;;;;0.80;0.80;;;4.10;99.90;;;;;;5034879;28;20273;-72
2024/01/23 05:03:38;;;;;;;0.50;0.50;;;4.10;99.90;;;;;;5034959;28;20684;-72
2024/01/23 05:06:04;;;;;;;0.77;0.77;;;4.10;99.90;;;;;;5034504;28;20309;-72
2024/01/23 05:08:30;;;;;;;0.80;0.80;;;4.10;99.90;;;;;;5033776;28;20195;-72
2024/01/23 05:10:56;;;;;;;0.70;0.70;;;4.10;99.90;;;;;;5033844;28;20198;-72
2024/01/23 05:13:22;;;;;;;0.60;0.60;;;4.20;99.90;;;;;;5033443;28;20248;-73
2024/01/23 05:15:47;;;;;;;0.70;0.70;;;4.20;99.90;;;;;;5016057;28;20194;-73
2024/01/23 05:18:13;;;;;;;0.63;0.63;;;4.30;99.90;;;;;;5033774;28;20194;-73
2024/01/23 05:20:39;;;;;;;0.70;0.70;;;4.20;99.90;;;;;;5033308;28;21272;-72
2024/01/23 05:23:05;;;;;;;0.60;0.60;;;4.20;99.90;;;;;;5033712;28;20199;-73
2024/01/23 05:25:31;;;;;;;0.50;0.50;;;4.10;99.90;;;;;;5015825;28;20206;-73
2024/01/23 05:27:57;;;;;;;0.60;0.60;;;4.00;99.90;;;;;;5033719;28;20750;-72
2024/01/23 05:30:23;;;;;;;0.70;0.70;;;4.10;99.90;;;;;;5033277;28;20561;-72
2024/01/23 05:32:50;;;;;;;6.15;2.05;;;4.10;99.90;;;;;;5033535;28;20218;-73
2024/01/23 05:35:16;;;;;;;0.68;0.68;;;4.00;99.90;;;;;;5015974;28;20198;-73
2024/01/23 05:37:42;;;;;;;0.70;0.70;;;3.90;99.90;;;;;;5033350;28;20559;-73
2024/01/23 05:40:12;;;;;;;0.60;0.60;;;3.90;99.90;;;;;;5033405;28;20194;-73
2024/01/23 05:42:38;;;;;;;1.15;1.15;;;3.90;99.90;;;;;;5033205;28;20194;-73
2024/01/23 05:45:05;;;;;;;0.60;0.60;;;3.90;99.90;;;;;;5033332;28;20615;-73
2024/01/23 05:47:30;;;;;;;0.55;0.55;;;3.90;99.90;;;;;;5032660;28;20237;-73
2024/01/23 05:49:56;;;;;;;0.60;0.60;;;3.80;99.90;;;;;;5033250;28;20622;-68
2024/01/23 05:52:22;;;;;;;0.50;0.50;;;3.80;99.90;;;;;;5033059;28;20681;-69
2024/01/23 05:54:47;;;;;;;0.52;0.52;;;3.80;99.90;;;;;;5015483;28;20623;-69
2024/01/23 05:57:14;;;;;;;0.90;0.90;;;3.80;99.90;;;;;;5033190;28;20218;-69
2024/01/23 05:59:40;;;;;;;0.63;0.63;;;3.70;99.90;;;;;;5032966;28;20670;-69
2024/01/23 06:02:06;;;;;;;0.50;0.50;;;3.70;99.90;;;;;;5033164;28;20207;-69
2024/01/23 06:04:32;;;;;;;0.80;0.80;;;3.70;99.90;;;;;;5032833;28;20714;-70
2024/01/23 06:06:58;;;;;;;0.60;0.60;;;3.70;99.90;;;;;;4983045;28;1455164;-69
2024/01/23 06:09:24;;;;;;;0.65;0.65;;;3.60;99.90;;;;;;5033719;28;20630;-71
2024/01/23 06:11:51;;;;;;;0.68;0.68;;;3.60;99.90;;;;;;5033884;28;20198;-69
2024/01/23 06:14:17;;;;;;;0.70;0.70;;;3.60;99.90;;;;;;5033536;28;20198;-69
2024/01/23 06:16:43;;;;;;;0.60;0.60;;;3.50;99.90;;;;;;5033740;28;20190;-69
2024/01/23 06:19:09;;;;;;;0.70;0.70;;;3.50;99.90;;;;;;5032499;28;20202;-69
2024/01/23 06:21:35;;;;;;;0.60;0.60;;;3.50;99.90;;;;;;5015716;28;20578;-69
2024/01/23 06:24:01;;;;;;;0.50;0.50;;;3.50;99.90;;;;;;5033638;28;20259;-68
2024/01/23 06:26:27;;;;;;;0.65;0.65;;;3.50;99.90;;;;;;5033449;28;20288;-68
2024/01/23 06:28:52;;;;;;;0.65;0.65;;;3.40;99.90;;;;;;5033536;28;20198;-68
2024/01/23 06:31:25;;;;;;;0.70;0.70;;;3.50;99.90;;;;;;5014986;28;20197;-68
2024/01/23 06:33:51;;;;;;;0.70;0.70;;;3.60;99.90;;;;;;5033465;28;20208;-68
2024/01/23 06:36:17;;;;;;;0.52;0.52;;;3.60;99.90;;;;;;5033339;28;20653;-68
2024/01/23 06:38:42;;;;;;;0.60;0.60;;;3.60;99.90;;;;;;5033261;28;20320;-69
2024/01/23 06:41:08;;;;;;;0.52;0.52;;;3.60;99.90;;;;;;5033327;28;20190;-68
2024/01/23 06:43:33;;;;;;;0.70;0.70;;;3.90;99.90;;;;;;5032805;28;20213;-69
2024/01/23 06:46:00;;;;;;;0.70;0.70;;;3.90;99.90;;;;;;5033133;28;20194;-68
2024/01/23 06:48:25;;;;;;;0.70;0.70;;;4.00;99.90;;;;;;5015344;28;20233;-69
2024/01/23 06:50:51;;;;;;;0.70;0.70;;;3.90;99.90;;;;;;5033176;28;20230;-68
2024/01/23 06:53:17;;;;;;;0.70;0.70;;;4.00;99.90;;;;;;5032949;28;20206;-69
2024/01/23 06:55:42;;;;;;;0.50;0.50;;;4.00;99.90;;;;;;5033002;28;20192;-69
2024/01/23 06:58:08;;;;;;;0.70;0.70;;;4.10;99.90;;;;;;5033154;28;20210;-74
2024/01/23 07:00:34;;;;;;;0.60;0.60;;;4.10;99.90;;;;;;5032511;28;20189;-75
2024/01/23 07:03:00;;;;;;;33.35;1.45;;;4.00;99.90;;;;;;5032984;28;20194;-75
2024/01/23 07:05:25;;;;;;;0.60;0.60;;;4.00;99.90;;;;;;5014809;28;20676;-74
2024/01/23 07:07:52;;;;;;;0.55;0.55;;;4.00;99.90;;;;;;5032867;28;20198;-75
2024/01/23 07:10:18;;;;;;;0.82;0.82;;;4.10;99.90;;;;;;5032623;28;20273;-75
2024/01/23 07:12:44;;;;;;;0.60;0.60;;;4.10;99.90;;;;;;5032835;28;20217;-76
2024/01/23 07:15:10;;;;;;;0.80;0.80;;;4.10;99.90;;;;;;5014906;28;20214;-76
2024/01/23 07:17:35;;;;;;;0.60;0.60;;;4.20;99.90;;;;;;5014730;28;20202;-76
2024/01/23 07:20:01;;;;;;;1.00;1.00;;;4.20;99.90;;;;;;5032668;28;20202;-75
2024/01/23 07:22:27;;;;;;;0.70;0.70;;;4.30;99.90;;;;;;5032523;28;20562;-76
2024/01/23 07:24:52;;;;;;;0.70;0.70;;;4.50;99.90;;;;;;5032785;28;20201;-76
2024/01/23 07:27:19;;;;;;;0.70;0.70;;;4.40;99.90;;;;;;5032446;28;20285;-75
2024/01/23 07:29:45;;;;;;;0.60;0.60;;;4.50;99.90;;;;;;5014737;28;20198;-75
2024/01/23 07:32:11;;;;;;;0.60;0.60;;;4.60;99.90;;;;;;5032432;28;20194;-74
2024/01/23 07:34:37;;;;;;;0.50;0.50;;;4.60;99.90;;;;;;5032182;28;20225;-74
2024/01/23 07:37:02;;;;;;;0.63;0.63;;;4.60;99.90;;;;;;5032371;28;20287;-75
2024/01/23 07:39:29;;;;;;;0.70;0.70;;;4.70;99.90;;;;;;5031971;28;20232;-74
2024/01/23 07:41:55;;;;;;;0.60;0.60;;;4.70;99.90;;;;;;5031977;28;20284;-75
2024/01/23 07:44:20;;;;;;;0.60;0.60;;;4.70;99.90;;;;;;5031416;28;20269;-75
2024/01/23 07:46:48;;;;;;;0.73;0.73;;;4.70;99.90;;;;;;5032377;28;20202;-75
2024/01/23 07:49:14;;;;;;;1.23;1.10;;;4.80;99.90;;;;;;5032282;28;20681;-76
2024/01/23 07:51:45;;;;;;;0.75;0.75;;;4.80;99.90;;;;;;5032169;28;20252;-75
2024/01/23 07:54:11;;;;;;;0.60;0.60;;;4.80;99.90;;;;;;5032144;28;20233;-76
2024/01/23 07:56:37;;;;;;;0.65;0.65;;;4.90;99.90;;;;;;5032093;28;20789;-76
2024/01/23 07:59:02;;;;;;;0.50;0.50;;;4.90;99.90;;;;;;5032169;28;20208;-76
2024/01/23 08:01:28;;;;;;;0.60;0.60;;;5.10;99.90;;;;;;5014064;28;20208;-74
2024/01/23 08:03:54;;;;;;;3.53;1.98;;;5.10;99.90;;;;;;5032157;28;20194;-76
2024/01/23 08:06:19;;;;;;;0.50;0.50;;;5.10;99.90;;;;;;5031789;28;20761;-76
2024/01/23 08:08:45;;;;;;;0.70;0.70;;;5.30;99.90;;;;;;5032328;28;20251;-76
2024/01/23 08:11:12;;;;;;;0.60;0.60;;;5.40;99.90;;;;;;5014276;28;20194;-76
2024/01/23 08:13:38;;;;;;;0.70;0.70;;;5.40;99.90;;;;;;5031891;28;20878;-77
2024/01/23 08:16:08;;;;;;;0.60;0.60;;;5.40;99.90;;;;;;5032257;28;20277;-78
2024/01/23 08:18:33;;;;;;;0.65;0.65;;;5.40;99.90;;;;;;5032266;28;20588;-77
2024/01/23 08:20:59;;;;;;;0.70;0.70;;;5.50;99.90;;;;;;5014955;28;20206;-80
2024/01/23 08:23:25;;;;;;;0.80;0.80;;;5.60;99.90;;;;;;5031868;28;20201;-79
2024/01/23 08:25:51;;;;;;;0.60;0.60;;;5.70;99.90;;;;;;5032558;28;20201;-79
2024/01/23 08:28:17;;;;;;;0.50;0.50;;;5.70;99.90;;;;;;5033366;28;20198;-77
2024/01/23 08:30:43;;;;;;;0.70;0.70;;;5.60;99.90;;;;;;5031952;28;20194;-80
2024/01/23 08:33:09;;;;;;;0.75;0.75;;;5.60;99.90;;;;;;5032222;28;20269;-77
2024/01/23 08:35:36;;;;;;;0.70;0.70;;;5.60;99.90;;;;;;5031676;28;20221;-79
2024/01/23 08:38:01;;;;;;;0.60;0.60;;;5.60;99.90;;;;;;5033244;28;20622;-77
2024/01/23 08:40:27;;;;;;;0.70;0.70;;;5.80;99.90;;;;;;5032114;28;20222;-78
2024/01/23 08:42:53;;;;;;;0.55;0.55;;;5.70;99.90;;;;;;5031902;28;20202;-76
2024/01/23 08:45:18;;;;;;;0.60;0.60;;;5.60;99.90;;;;;;5031688;28;20245;-77
2024/01/23 08:47:44;;;;;;;0.70;0.70;;;5.60;99.90;;;;;;5031869;28;20205;-77
2024/01/23 08:50:10;;;;;;;0.50;0.50;;;5.70;99.90;;;;;;5031889;28;20194;-77
2024/01/23 08:52:35;;;;;;;0.70;0.70;;;5.70;99.90;;;;;;5031857;28;20206;-78
2024/01/23 08:55:01;;;;;;;0.70;0.70;;;5.70;99.90;;;;;;5033781;28;20216;-77
2024/01/23 08:57:27;;;;;;;0.47;0.47;;;5.70;99.90;;;;;;5035091;28;20662;-77
2024/01/23 08:59:53;;;;;;;0.70;0.70;;;5.70;99.90;;;;;;5017594;28;20194;-77
2024/01/23 09:02:19;;;;;;;0.60;0.60;;;5.60;99.90;;;;;;5034805;28;20186;-78
2024/01/23 09:04:44;;;;;;;0.80;0.80;;;5.60;99.90;;;;;;5035190;28;20251;-80
2024/01/23 09:07:10;;;;;;;0.80;0.80;;;5.60;99.90;;;;;;5017434;28;20695;-78
2024/01/23 09:09:36;;;;;;;0.60;0.60;;;5.60;99.90;;;;;;5017349;28;20227;-78
2024/01/23 09:12:02;;;;;;;0.70;0.70;;;5.70;99.90;;;;;;5036256;28;20295;-77
2024/01/23 09:14:28;;;;;;;0.73;0.73;;;5.80;99.90;;;;;;5017582;28;20214;-78
2024/01/23 09:16:53;;;;;;;0.70;0.70;;;5.90;99.90;;;;;;5017174;28;20194;-76
2024/01/23 09:19:19;;;;;;;0.70;0.70;;;5.80;99.90;;;;;;5034912;28;20273;-70
2024/01/23 09:21:44;;;;;;;0.70;0.70;;;5.80;99.90;;;;;;5017145;28;20198;-69
2024/01/23 09:24:10;;;;;;;0.70;0.70;;;5.80;99.90;;;;;;5034901;28;20232;-69
2024/01/23 09:26:36;;;;;;;0.70;0.70;;;5.80;99.90;;;;;;5034621;28;20206;-68
2024/01/23 09:29:03;;;;;;;0.68;0.68;;;5.70;99.90;;;;;;5034751;28;20190;-69
2024/01/23 09:31:28;;;;;;;0.60;0.60;;;5.60;99.90;;;;;;5034460;28;20269;-68
2024/01/23 09:33:54;;;;;;;0.70;0.70;;;5.60;99.90;;;;;;5034491;28;20631;-68
2024/01/23 09:36:19;;;;;;;0.60;0.60;;;5.60;99.90;;;;;;5034302;28;20553;-68
2024/01/23 09:38:45;;;;;;;0.80;0.80;;;5.60;99.90;;;;;;5034726;28;20190;-68
2024/01/23 09:41:12;;;;;;;0.77;0.77;;;5.60;99.90;;;;;;5034478;28;20197;-68
2024/01/23 09:43:43;;;;;;;0.60;0.60;;;5.70;99.90;;;;;;5034232;28;20198;-68
2024/01/23 09:46:12;;;;;;;0.60;0.60;;;5.60;99.90;;;;;;5016604;28;20202;-70
2024/01/23 09:48:41;;;;;;;0.50;0.50;;;5.60;99.90;;;;;;5034167;28;20267;-68
2024/01/23 09:51:13;;;;;;;0.70;0.70;;;5.70;99.90;;;;;;5034301;28;20194;-68
2024/01/23 09:53:43;;;;;;;0.50;0.50;;;5.80;99.90;;;;;;5034013;28;20320;-68
2024/01/23 09:56:10;;;;;;;0.60;0.60;;;5.90;99.90;;;;;;5034148;28;20225;-69
2024/01/23 09:58:36;;;;;;;0.50;0.50;;;6.00;99.90;;;;;;5034003;28;20194;-68
2024/01/23 10:01:03;;;;;;;0.60;0.60;;;6.00;99.90;;;;;;5033862;28;20182;-69
2024/01/23 10:03:33;;;;;;;0.82;0.82;;;5.90;99.90;;;;;;5033823;28;20244;-69
2024/01/23 10:05:59;;;;;;;0.50;0.50;;;5.80;99.90;;;;;;5015241;28;20229;-68
2024/01/23 10:08:25;;;;;;;0.70;0.70;;;5.90;99.90;;;;;;5033769;28;20194;-68
2024/01/23 10:11:01;;;;;;;0.63;0.63;;;5.90;99.90;;;;;;5033928;28;20329;-69
2024/01/23 10:13:28;;;;;;;0.70;0.70;;;5.90;99.90;;;;;;5033677;28;20697;-69
2024/01/23 10:15:57;;;;;;;0.60;0.60;;;6.10;99.90;;;;;;5033900;28;20213;-69
2024/01/23 10:18:25;;;;;;;0.60;0.60;;;6.20;99.90;;;;;;5033521;28;20198;-69
2024/01/23 10:20:51;;;;;;;0.70;0.70;;;6.30;99.90;;;;;;5033731;28;20585;-68
2024/01/23 10:23:17;;;;;;;0.70;0.70;;;6.30;99.90;;;;;;5033627;28;20194;-69
2024/01/23 10:25:43;;;;;;;0.70;0.70;;;6.40;99.90;;;;;;5033976;28;20205;-69
2024/01/23 10:28:10;;;;;;;0.60;0.60;;;6.40;99.90;;;;;;5033436;28;20608;-79
2024/01/23 10:30:45;;;;;;;0.70;0.70;;;6.40;99.90;;;;;;5033195;28;20213;-74
2024/01/23 10:33:11;;;;;;;0.60;0.60;;;6.40;99.90;;;;;;5033385;28;20223;-74
2024/01/23 10:35:36;;;;;;;0.65;0.65;;;6.40;99.90;;;;;;5033283;28;20202;-73
2024/01/23 10:38:05;;;;;;;0.60;0.60;;;6.40;99.90;;;;;;5033449;28;20198;-73
2024/01/23 10:40:31;;;;;;;0.70;0.70;;;6.50;99.90;;;;;;5033132;28;20269;-73
2024/01/23 10:42:57;;;;;;;0.70;0.70;;;6.60;99.90;;;;;;5033432;28;20186;-74
2024/01/23 10:45:23;;;;;;;0.70;0.70;;;6.50;99.90;;;;;;5033034;28;20277;-74
2024/01/23 10:47:57;;;;;;;0.70;0.70;;;6.50;99.90;;;;;;5033200;28;20269;-74
2024/01/23 10:50:22;;;;;;;0.50;0.50;;;6.60;99.90;;;;;;5032936;28;20278;-73
2024/01/23 10:52:49;;;;;;;0.68;0.68;;;6.60;99.90;;;;;;5033240;28;20274;-73
2024/01/23 10:55:16;;;;;;;0.70;0.70;;;6.70;99.90;;;;;;5032934;28;20677;-73
2024/01/23 10:57:48;;;;;;;0.63;0.63;;;6.70;99.90;;;;;;5032952;28;20197;-73
2024/01/23 11:00:17;;;;;;;0.70;0.70;;;6.80;99.90;;;;;;5032673;28;20187;-73
2024/01/23 11:02:47;;;;;;;0.70;0.70;;;7.00;99.90;;;;;;5032906;28;20273;-72
2024/01/23 11:05:13;;;;;;;0.60;0.60;;;7.10;99.90;;;;;;5032901;28;20226;-73
2024/01/23 11:07:53;;;;;;;0.60;0.60;;;7.20;99.90;;;;;;5014774;28;20276;-72
2024/01/23 11:10:33;;;;;;;0.70;0.70;;;7.30;99.90;;;;;;5032570;28;20260;-73
2024/01/23 11:13:17;;;;;;;0.60;0.60;;;7.30;99.90;;;;;;5014850;28;20729;-72
2024/01/23 11:15:43;;;;;;;0.70;0.70;;;7.30;99.90;;;;;;5032569;28;20186;-72
2024/01/23 11:18:28;;;;;;;0.65;0.65;;;7.20;99.90;;;;;;5032317;28;20209;-73
2024/01/23 11:21:09;;;;;;;0.60;0.60;;;7.10;99.90;;;;;;5032542;28;20688;-73
2024/01/23 11:23:39;;;;;;;0.60;0.60;;;7.10;99.90;;;;;;5032021;28;20194;-73
2024/01/23 11:26:12;;;;;;;0.70;0.70;;;7.10;99.90;;;;;;5032974;28;20194;-72
2024/01/23 11:28:38;;;;;;;0.70;0.70;;;7.00;99.90;;;;;;5032406;28;20877;-72
2024/01/23 11:31:17;;;;;;;0.50;0.50;;;7.10;99.90;;;;;;5032542;28;20665;-73
2024/01/23 11:33:43;;;;;;;0.70;0.70;;;7.10;99.90;;;;;;5014717;28;20218;-73
2024/01/23 11:36:15;;;;;;;0.70;0.70;;;7.20;99.90;;;;;;5032429;28;20190;-73
2024/01/23 11:38:51;;;;;;;0.70;0.70;;;7.20;99.90;;;;;;5032438;28;20193;-70
2024/01/23 11:41:24;;;;;;;0.70;0.70;;;7.10;99.90;;;;;;5032370;28;20193;-70
2024/01/23 11:44:03;;;;;;;0.70;0.70;;;7.20;99.90;;;;;;5032481;28;20285;-71
2024/01/23 11:46:29;;;;;;;0.70;0.70;;;7.10;99.90;;;;;;5032145;28;20654;-70
2024/01/23 11:48:54;;;;;;;0.70;0.70;;;7.00;99.90;;;;;;5014613;28;20267;-70
2024/01/23 11:51:21;;;;;;;0.52;0.52;;;6.90;99.90;;;;;;5032076;28;20662;-69
2024/01/23 11:53:47;;;;;;;0.70;0.70;;;7.00;99.90;;;;;;5032395;28;20210;-70
2024/01/23 11:56:16;;;;;;;0.70;0.70;;;7.00;99.90;;;;;;5032514;28;20279;-69
2024/01/23 11:58:42;;;;;;;0.60;0.60;;;7.00;99.90;;;;;;5032152;28;20187;-69
2024/01/23 12:01:09;;;;;;;0.70;0.70;;;6.90;99.90;;;;;;5031988;28;20194;-71
2024/01/23 12:03:35;;;;;;;0.60;0.60;;;7.00;99.90;;;;;;5032038;28;20205;-70
2024/01/23 12:06:10;;;;;;;0.60;0.60;;;7.00;99.90;;;;;;5032269;28;20234;-69
2024/01/23 12:08:35;;;;;;;0.70;0.70;;;7.00;99.90;;;;;;5014362;28;20193;-70
2024/01/23 12:11:02;;;;;;;12.38;2.05;;;7.00;99.90;;;;;;5032302;28;20256;-70
2024/01/23 12:13:28;;;;;;;0.70;0.70;;;7.00;99.90;;;;;;5014363;28;20268;-73
2024/01/23 12:15:54;;;;;;;0.65;0.65;;;7.00;99.90;;;;;;5032066;28;20655;-70
2024/01/23 12:18:23;;;;;;;0.60;0.60;;;7.00;99.90;;;;;;5014465;28;20285;-69
2024/01/23 12:20:56;;;;;;;0.70;0.70;;;6.90;99.90;;;;;;5031869;28;20230;-70
2024/01/23 12:23:24;;;;;;;0.70;0.70;;;7.00;99.90;;;;;;5031856;28;20281;-72
2024/01/23 12:25:50;;;;;;;0.70;0.70;;;6.90;99.90;;;;;;5031888;28;20205;-70
2024/01/23 12:28:17;;;;;;;0.70;0.70;;;6.90;99.90;;;;;;5031991;28;20561;-70
2024/01/23 12:30:44;;;;;;;0.60;0.60;;;6.70;99.90;;;;;;5035187;28;20662;-70
2024/01/23 12:33:15;;;;;;;0.60;0.60;;;6.60;99.90;;;;;;5035652;28;20194;-72
2024/01/23 12:35:46;;;;;;;0.60;0.60;;;6.50;99.90;;;;;;5035657;28;20330;-71
2024/01/23 12:38:20;;;;;;;0.70;0.70;;;6.50;99.90;;;;;;5035633;28;20187;-70
2024/01/23 12:40:46;;;;;;;0.70;0.70;;;6.30;99.90;;;;;;5035624;28;20194;-69
2024/01/23 12:43:13;;;;;;;0.70;0.70;;;6.10;99.90;;;;;;5035594;28;20194;-70
2024/01/23 12:45:39;;;;;;;0.73;0.73;;;6.20;99.90;;;;;;5035457;28;20194;-70
2024/01/23 12:48:06;;;;;;;0.70;0.70;;;6.10;99.90;;;;;;5017933;28;20205;-70
2024/01/23 12:50:32;;;;;;;0.70;0.70;;;6.00;99.90;;;;;;5001163;28;20229;-74
2024/01/23 12:52:59;;;;;;;0.70;0.70;;;6.10;99.90;;;;;;5035444;28;20229;-74
2024/01/23 12:55:33;;;;;;;1.65;1.05;;;6.10;99.90;;;;;;5035095;28;20229;-74